createdAt,value
2022-10-24T00:01:35.248Z,3.42
2022-10-24T00:04:01.817Z,3.53
2022-10-24T00:06:28.275Z,3.57
2022-10-24T00:08:54.743Z,4.07
2022-10-24T00:11:26.387Z,4.15
2022-10-24T00:13:54.403Z,4.70
2022-10-24T00:16:20.913Z,4.47
2022-10-24T00:18:48.115Z,4.33
2022-10-24T00:21:14.766Z,4.20
2022-10-24T00:23:41.250Z,4.13
2022-10-24T00:26:07.695Z,4.28
2022-10-24T00:28:36.697Z,4.70
2022-10-24T00:31:04.677Z,5.03
2022-10-24T00:33:31.836Z,3.92
2022-10-24T00:35:58.355Z,4.63
2022-10-24T00:38:25.203Z,3.92
2022-10-24T00:40:51.732Z,4.18
2022-10-24T00:43:21.241Z,3.97
2022-10-24T00:45:57.041Z,3.83
2022-10-24T00:48:40.023Z,4.40
2022-10-24T00:51:24.708Z,3.83
2022-10-24T00:56:28.730Z,3.77
2022-10-24T00:58:58.034Z,3.53
2022-10-24T01:01:25.747Z,3.88
2022-10-24T01:03:52.368Z,3.95
2022-10-24T01:06:45.625Z,2.97
2022-10-24T01:09:49.480Z,3.70
2022-10-24T01:12:18.835Z,3.45
2022-10-24T01:14:59.244Z,3.72
2022-10-24T01:17:33.107Z,3.78
2022-10-24T01:20:24.387Z,3.97
2022-10-24T01:22:53.796Z,3.20
2022-10-24T01:25:31.737Z,3.53
2022-10-24T01:28:15.339Z,3.65
2022-10-24T01:30:47.509Z,4.22
2022-10-24T01:33:27.273Z,3.40
2022-10-24T01:36:03.013Z,3.20
2022-10-24T01:38:38.762Z,3.45
2022-10-24T01:41:09.805Z,3.20
2022-10-24T01:43:49.704Z,3.60
2022-10-24T01:46:22.710Z,3.95
2022-10-24T01:48:58.163Z,2.70
2022-10-24T01:51:27.412Z,4.00
2022-10-24T01:53:54.822Z,3.53
2022-10-24T01:56:21.435Z,4.15
2022-10-24T01:58:47.887Z,4.47
2022-10-24T02:01:19.568Z,3.50
2022-10-24T02:03:50.605Z,3.35
2022-10-24T02:06:22.778Z,4.30
2022-10-24T02:08:55.007Z,3.95
2022-10-24T02:11:21.583Z,4.10
2022-10-24T02:13:59.999Z,3.73
2022-10-24T02:16:26.487Z,3.78
2022-10-24T02:18:56.338Z,3.10
2022-10-24T02:21:36.586Z,3.90
2022-10-24T02:24:07.326Z,3.13
2022-10-24T02:26:44.842Z,2.97
2022-10-24T02:29:15.822Z,3.50
2022-10-24T02:31:48.829Z,3.25
2022-10-24T02:34:18.196Z,3.45
2022-10-24T02:36:46.910Z,3.35
2022-10-24T02:39:15.355Z,3.00
2022-10-24T02:41:44.231Z,2.97
2022-10-24T02:44:13.548Z,3.78
2022-10-24T02:46:42.015Z,3.00
2022-10-24T02:49:08.497Z,3.05
2022-10-24T02:51:41.283Z,2.90
2022-10-24T02:54:07.921Z,3.78
2022-10-24T02:56:37.077Z,3.53
2022-10-24T02:59:03.625Z,3.25
2022-10-24T03:01:30.209Z,2.80
2022-10-24T03:03:56.698Z,3.80
2022-10-24T03:06:23.142Z,3.38
2022-10-24T03:08:49.554Z,2.65
2022-10-24T03:11:16.068Z,3.47
2022-10-24T03:13:42.483Z,3.20
2022-10-24T03:16:11.672Z,2.80
2022-10-24T03:18:40.470Z,2.78
2022-10-24T03:21:06.993Z,2.55
2022-10-24T03:23:33.426Z,2.92
2022-10-24T03:26:00.191Z,2.65
2022-10-24T03:28:26.709Z,2.93
2022-10-24T03:30:53.625Z,3.05
2022-10-24T03:33:20.290Z,2.85
2022-10-24T03:35:46.848Z,2.30
2022-10-24T03:38:13.308Z,2.95
2022-10-24T03:40:39.828Z,3.13
2022-10-24T03:43:06.313Z,2.50
2022-10-24T03:45:32.814Z,3.03
2022-10-24T03:47:59.267Z,2.95
2022-10-24T03:50:25.960Z,2.50
2022-10-24T03:52:52.434Z,2.50
2022-10-24T03:55:18.913Z,2.10
2022-10-24T03:57:45.644Z,2.42
2022-10-24T04:00:12.472Z,1.73
2022-10-24T04:02:40.342Z,1.95
2022-10-24T04:05:09.717Z,2.20
2022-10-24T04:07:36.708Z,2.40
2022-10-24T04:10:03.765Z,2.63
2022-10-24T04:12:30.181Z,2.10
2022-10-24T04:15:00.894Z,2.75
2022-10-24T04:17:30.437Z,2.07
2022-10-24T04:19:56.933Z,2.17
2022-10-24T04:22:23.352Z,1.95
2022-10-24T04:24:50.031Z,2.58
2022-10-24T04:27:16.480Z,3.13
2022-10-24T04:29:42.934Z,2.13
2022-10-24T04:32:09.394Z,2.25
2022-10-24T04:34:36.342Z,2.72
2022-10-24T04:37:03.292Z,2.22
2022-10-24T04:39:29.807Z,2.92
2022-10-24T04:41:56.313Z,2.20
2022-10-24T04:44:22.938Z,2.20
2022-10-24T04:46:51.325Z,2.30
2022-10-24T04:49:18.077Z,2.25
2022-10-24T04:51:44.610Z,2.30
2022-10-24T04:54:11.034Z,2.10
2022-10-24T04:56:37.474Z,1.90
2022-10-24T04:59:03.914Z,2.40
2022-10-24T05:01:30.441Z,2.17
2022-10-24T05:03:56.973Z,2.20
2022-10-24T05:06:23.482Z,2.20
2022-10-24T05:08:49.910Z,2.50
2022-10-24T05:11:16.337Z,2.30
2022-10-24T05:13:42.822Z,2.03
2022-10-24T05:16:09.282Z,2.70
2022-10-24T05:18:35.717Z,2.13
2022-10-24T05:21:02.176Z,2.03
2022-10-24T05:23:28.622Z,2.22
2022-10-24T05:25:55.147Z,2.95
2022-10-24T05:28:21.692Z,2.78
2022-10-24T05:30:48.198Z,2.40
2022-10-24T05:33:14.916Z,2.75
2022-10-24T05:35:41.928Z,2.35
2022-10-24T05:38:08.462Z,3.00
2022-10-24T05:40:35.029Z,2.67
2022-10-24T05:43:01.536Z,2.50
2022-10-24T05:45:28.069Z,2.53
2022-10-24T05:47:54.525Z,1.98
2022-10-24T05:50:20.983Z,2.53
2022-10-24T05:52:47.465Z,2.90
2022-10-24T05:55:16.930Z,2.60
2022-10-24T05:57:45.090Z,3.60
2022-10-24T06:00:14.346Z,2.80
2022-10-24T06:02:41.435Z,2.53
2022-10-24T06:05:09.464Z,2.22
2022-10-24T06:07:36.989Z,2.27
2022-10-24T06:10:05.601Z,2.60
2022-10-24T06:12:33.047Z,2.40
2022-10-24T06:15:00.596Z,3.45
2022-10-24T06:17:27.492Z,3.10
2022-10-24T06:19:54.292Z,2.20
2022-10-24T06:22:24.052Z,2.95
2022-10-24T06:24:50.934Z,2.50
2022-10-24T06:27:17.461Z,3.17
2022-10-24T06:29:44.185Z,3.35
2022-10-24T06:32:10.725Z,3.23
2022-10-24T06:34:37.497Z,3.30
2022-10-24T06:37:04.225Z,3.67
2022-10-24T06:39:30.940Z,3.10
2022-10-24T06:41:57.367Z,2.55
2022-10-24T06:44:23.959Z,2.27
2022-10-24T06:46:50.396Z,2.50
2022-10-24T06:49:17.327Z,2.25
2022-10-24T06:51:43.871Z,2.25
2022-10-24T06:54:10.436Z,3.38
2022-10-24T06:56:36.919Z,2.97
2022-10-24T06:59:08.823Z,3.22
2022-10-24T07:01:35.890Z,3.78
2022-10-24T07:04:02.544Z,2.42
2022-10-24T07:06:30.072Z,2.40
2022-10-24T07:08:58.877Z,2.67
2022-10-24T07:11:26.473Z,3.10
2022-10-24T07:13:55.293Z,3.42
2022-10-24T07:16:25.730Z,3.45
2022-10-24T07:18:52.288Z,3.42
2022-10-24T07:21:29.778Z,3.10
2022-10-24T07:23:56.899Z,2.80
2022-10-24T07:26:24.948Z,3.08
2022-10-24T07:28:54.813Z,3.72
2022-10-24T07:31:23.597Z,3.50
2022-10-24T07:33:51.038Z,2.00
2022-10-24T07:36:23.930Z,3.30
2022-10-24T07:38:53.028Z,3.33
2022-10-24T07:41:19.628Z,3.47
2022-10-24T07:43:46.596Z,2.97
2022-10-24T07:46:15.084Z,3.30
2022-10-24T07:48:42.539Z,3.42
2022-10-24T07:51:11.781Z,3.13
2022-10-24T07:53:38.374Z,2.42
2022-10-24T07:56:09.286Z,2.80
2022-10-24T07:58:36.953Z,2.53
2022-10-24T08:01:06.211Z,2.80
2022-10-24T08:03:32.788Z,3.50
2022-10-24T08:05:59.815Z,2.30
2022-10-24T08:08:36.530Z,2.58
2022-10-24T08:11:16.393Z,2.40
2022-10-24T08:13:43.154Z,2.33
2022-10-24T08:16:12.570Z,3.15
2022-10-24T08:18:39.943Z,2.78
2022-10-24T08:21:08.869Z,2.67
2022-10-24T08:23:37.188Z,3.03
2022-10-24T08:26:05.934Z,2.35
2022-10-24T08:28:32.478Z,2.70
2022-10-24T08:31:01.392Z,3.03
2022-10-24T08:33:28.253Z,2.63
2022-10-24T08:36:00.207Z,2.40
2022-10-24T08:38:28.056Z,3.03
2022-10-24T08:40:54.972Z,3.58
2022-10-24T08:43:22.430Z,3.30
2022-10-24T08:46:31.132Z,2.83
2022-10-24T08:49:08.938Z,3.17
2022-10-24T08:51:54.590Z,2.83
2022-10-24T08:54:27.500Z,2.58
2022-10-24T08:56:57.991Z,3.17
2022-10-24T08:59:26.893Z,2.80
2022-10-24T09:02:12.623Z,2.47
2022-10-24T09:04:48.966Z,3.22
2022-10-24T09:07:21.491Z,2.30
2022-10-24T09:09:51.196Z,2.53
2022-10-24T09:12:20.667Z,2.50
2022-10-24T09:14:53.277Z,2.53
2022-10-24T09:17:34.935Z,2.92
2022-10-24T09:20:17.706Z,2.15
2022-10-24T09:22:44.958Z,2.53
2022-10-24T09:25:19.318Z,2.92
2022-10-24T09:27:46.427Z,2.30
2022-10-24T09:30:19.756Z,2.42
2022-10-24T09:32:47.083Z,2.53
2022-10-24T09:35:20.778Z,3.67
2022-10-24T09:37:55.214Z,2.90
2022-10-24T09:40:28.461Z,2.07
2022-10-24T09:43:00.890Z,1.60
2022-10-24T09:45:32.397Z,2.28
2022-10-24T09:48:03.068Z,2.30
2022-10-24T09:50:35.432Z,2.42
2022-10-24T09:53:04.345Z,2.67
2022-10-24T09:55:31.984Z,1.95
2022-10-24T09:58:04.078Z,2.33
2022-10-24T10:00:36.019Z,1.95
2022-10-24T10:03:04.683Z,2.55
2022-10-24T10:05:49.451Z,2.10
2022-10-24T10:08:22.615Z,2.40
2022-10-24T10:10:59.277Z,2.75
2022-10-24T10:13:27.813Z,2.35
2022-10-24T10:15:58.771Z,2.53
2022-10-24T10:18:31.238Z,2.80
2022-10-24T10:21:13.354Z,2.17
2022-10-24T10:23:39.728Z,2.47
2022-10-24T10:26:11.265Z,4.82
2022-10-24T10:28:45.842Z,2.42
2022-10-24T10:31:12.634Z,2.13
2022-10-24T10:33:59.165Z,1.90
2022-10-24T10:36:43.199Z,2.80
2022-10-24T10:39:41.873Z,2.50
2022-10-24T10:42:28.126Z,2.28
2022-10-24T10:45:32.647Z,2.37
2022-10-24T10:48:08.928Z,2.65
2022-10-24T10:50:41.648Z,1.80
2022-10-24T10:53:26.020Z,2.42
2022-10-24T10:56:00.193Z,2.17
2022-10-24T10:58:34.392Z,2.37
2022-10-24T11:01:23.991Z,3.53
2022-10-24T11:04:00.972Z,2.50
2022-10-24T11:06:41.535Z,2.20
2022-10-24T11:09:25.766Z,2.47
2022-10-24T11:11:59.535Z,2.63
2022-10-24T11:14:46.927Z,2.30
2022-10-24T11:17:42.062Z,2.60
2022-10-24T11:20:26.816Z,2.30
2022-10-24T11:23:15.447Z,2.67
2022-10-24T11:26:01.988Z,2.73
2022-10-24T11:28:35.768Z,2.40
2022-10-24T11:31:18.450Z,2.72
2022-10-24T11:33:51.946Z,2.60
2022-10-24T11:36:34.218Z,2.75
2022-10-24T11:39:28.857Z,2.50
2022-10-24T11:42:15.702Z,3.00
2022-10-24T11:45:10.658Z,3.22
2022-10-24T11:47:55.330Z,2.85
2022-10-24T11:50:27.441Z,4.03
2022-10-24T11:53:12.443Z,2.23
2022-10-24T11:55:47.100Z,2.40
2022-10-24T11:58:21.223Z,2.58
2022-10-24T12:01:06.540Z,2.05
2022-10-24T12:03:39.029Z,2.70
2022-10-24T12:06:37.654Z,2.40
2022-10-24T12:09:09.782Z,2.60
2022-10-24T12:11:45.273Z,2.13
2022-10-24T12:14:42.205Z,2.70
2022-10-24T12:17:35.989Z,2.60
2022-10-24T12:20:05.734Z,2.23
2022-10-24T12:22:41.492Z,2.25
2022-10-24T12:25:37.517Z,2.30
2022-10-24T12:28:08.588Z,2.70
2022-10-24T12:30:36.631Z,2.70
2022-10-24T12:33:24.250Z,2.47
2022-10-24T12:35:54.498Z,2.97
2022-10-24T12:38:26.951Z,2.60
2022-10-24T12:40:58.599Z,2.60
2022-10-24T12:43:35.524Z,2.60
2022-10-24T12:46:24.242Z,2.57
2022-10-24T12:48:56.415Z,2.95
2022-10-24T12:51:32.037Z,2.78
2022-10-24T12:54:15.893Z,2.97
2022-10-24T12:56:51.307Z,2.13
2022-10-24T12:59:32.068Z,2.60
2022-10-24T13:02:30.573Z,2.60
2022-10-24T13:05:09.008Z,3.13
2022-10-24T13:07:56.310Z,2.92
2022-10-24T13:10:45.420Z,2.70
2022-10-24T13:13:27.819Z,3.33
2022-10-24T13:16:07.297Z,2.85
2022-10-24T13:19:04.079Z,2.53
2022-10-24T13:24:21.797Z,3.03
2022-10-24T13:27:12.737Z,2.87
2022-10-24T13:29:39.546Z,2.90
2022-10-24T13:32:05.960Z,3.00
2022-10-24T13:34:54.573Z,3.25
2022-10-24T13:37:27.522Z,2.92
2022-10-24T13:40:32.469Z,2.90
2022-10-24T13:43:14.630Z,3.00
2022-10-24T13:45:53.421Z,2.55
2022-10-24T13:48:23.028Z,2.97
2022-10-24T13:51:02.565Z,2.50
2022-10-24T13:53:33.253Z,3.20
2022-10-24T13:56:04.549Z,3.03
2022-10-24T13:58:42.099Z,3.40
2022-10-24T14:01:22.481Z,2.75
2022-10-24T14:03:50.179Z,3.35
2022-10-24T14:06:22.451Z,2.80
2022-10-24T14:09:02.805Z,3.10
2022-10-24T14:11:32.618Z,3.08
2022-10-24T14:14:04.306Z,3.55
2022-10-24T14:16:34.201Z,2.85
2022-10-24T14:19:13.609Z,3.33
2022-10-24T14:21:46.019Z,3.15
2022-10-24T14:24:17.570Z,3.38
2022-10-24T14:26:47.907Z,3.35
2022-10-24T14:29:32.421Z,2.80
2022-10-24T14:32:01.929Z,3.03
2022-10-24T14:34:33.923Z,2.80
2022-10-24T14:37:08.801Z,2.85
2022-10-24T14:39:36.901Z,2.70
2022-10-24T14:42:03.696Z,3.10
2022-10-24T14:44:30.387Z,2.47
2022-10-24T14:47:20.642Z,2.40
2022-10-24T14:49:47.328Z,2.47
2022-10-24T14:52:32.311Z,2.38
2022-10-24T14:55:26.799Z,2.45
2022-10-24T14:57:54.216Z,2.93
2022-10-24T15:00:23.501Z,2.63
2022-10-24T15:02:52.583Z,2.80
2022-10-24T15:05:18.959Z,2.53
2022-10-24T15:08:16.688Z,2.10
2022-10-24T15:10:41.407Z,2.20
2022-10-24T15:13:10.713Z,1.90
2022-10-24T15:15:57.827Z,2.20
2022-10-24T15:18:29.077Z,1.75
2022-10-24T15:21:07.155Z,1.98
2022-10-24T15:23:37.807Z,1.93
2022-10-24T15:26:18.589Z,2.50
2022-10-24T15:28:48.503Z,2.35
2022-10-24T15:31:18.210Z,2.58
2022-10-24T15:33:45.349Z,2.58
2022-10-24T15:36:20.705Z,2.53
2022-10-24T15:38:48.551Z,2.75
2022-10-24T15:41:16.038Z,2.72
2022-10-24T15:43:42.489Z,2.95
2022-10-24T15:46:08.923Z,2.85
2022-10-24T15:48:35.412Z,2.53
2022-10-24T15:51:01.873Z,2.83
2022-10-24T15:53:28.348Z,3.25
2022-10-24T15:55:54.842Z,2.50
2022-10-24T15:58:21.447Z,2.72
2022-10-24T16:00:48.246Z,3.17
2022-10-24T16:03:22.551Z,2.78
2022-10-24T16:05:55.962Z,2.90
2022-10-24T16:08:24.006Z,2.78
2022-10-24T16:10:52.432Z,2.50
2022-10-24T16:13:21.356Z,2.70
2022-10-24T16:15:49.162Z,2.72
2022-10-24T16:18:16.954Z,2.85
2022-10-24T16:20:43.747Z,2.38
2022-10-24T16:23:13.705Z,2.63
2022-10-24T16:25:40.404Z,3.73
2022-10-24T16:28:08.117Z,3.20
2022-10-24T16:30:37.299Z,3.33
2022-10-24T16:33:03.795Z,3.25
2022-10-24T16:35:33.491Z,4.97
2022-10-24T16:38:01.498Z,3.37
2022-10-24T16:40:29.293Z,3.17
2022-10-24T16:42:58.192Z,3.17
2022-10-24T16:45:25.802Z,3.72
2022-10-24T16:47:52.352Z,3.50
2022-10-24T16:50:24.000Z,3.80
2022-10-24T16:52:55.645Z,3.50
2022-10-24T16:55:22.485Z,3.70
2022-10-24T16:57:49.404Z,3.22
2022-10-24T17:00:18.121Z,3.65
2022-10-24T17:02:46.949Z,3.97
2022-10-24T17:05:13.749Z,4.07
2022-10-24T17:07:41.082Z,4.28
2022-10-24T17:10:09.442Z,3.95
2022-10-24T17:12:35.900Z,4.32
2022-10-24T17:15:02.500Z,4.23
2022-10-24T17:17:30.174Z,3.85
2022-10-24T17:19:56.784Z,3.90
2022-10-24T17:22:23.512Z,4.20
2022-10-24T17:24:50.354Z,3.53
2022-10-24T17:27:17.087Z,3.50
2022-10-24T17:29:44.811Z,3.53
2022-10-24T17:32:13.104Z,3.70
2022-10-24T17:34:42.019Z,4.82
2022-10-24T17:37:23.529Z,4.57
2022-10-24T17:39:51.949Z,4.33
2022-10-24T17:42:19.331Z,3.95
2022-10-24T17:44:47.588Z,3.47
2022-10-24T17:47:15.428Z,3.58
2022-10-24T17:49:45.498Z,4.28
2022-10-24T17:52:17.574Z,4.70
2022-10-24T17:54:45.775Z,9.15
2022-10-24T17:57:12.457Z,8.95
2022-10-24T17:59:38.944Z,7.45
2022-10-24T18:02:05.726Z,5.45
2022-10-24T18:07:03.824Z,6.25
2022-10-24T18:09:30.430Z,5.68
2022-10-24T18:11:57.657Z,6.35
2022-10-24T18:14:24.193Z,6.90
2022-10-24T18:16:50.639Z,5.97
2022-10-24T18:19:17.150Z,5.18
2022-10-24T18:21:43.826Z,6.75
2022-10-24T18:24:10.292Z,6.90
2022-10-24T18:26:36.696Z,4.65
2022-10-24T18:29:03.447Z,4.87
2022-10-24T18:31:31.103Z,4.68
2022-10-24T18:34:04.951Z,5.47
2022-10-24T18:36:34.792Z,5.38
2022-10-24T18:39:01.484Z,5.82
2022-10-24T18:41:30.471Z,4.57
2022-10-24T18:43:59.401Z,4.65
2022-10-24T18:46:26.590Z,5.28
2022-10-24T18:48:53.464Z,4.38
2022-10-24T18:51:33.380Z,5.03
2022-10-24T18:54:07.041Z,5.67
2022-10-24T18:56:34.193Z,4.18
2022-10-24T18:59:00.778Z,5.30
2022-10-24T19:01:56.115Z,5.25
2022-10-24T19:04:25.519Z,5.00
2022-10-24T19:06:57.416Z,5.57
2022-10-24T19:09:25.696Z,4.93
2022-10-24T19:11:52.789Z,4.57
2022-10-24T19:14:20.994Z,4.93
2022-10-24T19:16:50.530Z,4.72
2022-10-24T19:19:26.579Z,4.43
2022-10-24T19:21:53.361Z,4.65
2022-10-24T19:24:19.917Z,5.43
2022-10-24T19:26:46.477Z,4.78
2022-10-24T19:29:13.127Z,4.15
2022-10-24T19:31:39.759Z,4.33
2022-10-24T19:34:06.368Z,4.95
2022-10-24T19:36:34.212Z,4.40
2022-10-24T19:39:00.945Z,4.30
2022-10-24T19:41:27.474Z,4.18
2022-10-24T19:43:54.329Z,3.70
2022-10-24T19:46:20.929Z,4.63
2022-10-24T19:48:53.002Z,4.20
2022-10-24T19:51:20.651Z,4.68
2022-10-24T19:53:47.930Z,4.57
2022-10-24T19:56:19.125Z,4.43
2022-10-24T19:58:47.827Z,4.10
2022-10-24T20:01:18.075Z,3.78
2022-10-24T20:03:46.836Z,4.65
2022-10-24T20:06:14.219Z,4.85
2022-10-24T20:08:41.372Z,5.03
2022-10-24T20:11:08.940Z,4.93
2022-10-24T20:13:35.926Z,4.82
2022-10-24T20:16:05.881Z,5.30
2022-10-24T20:18:34.535Z,5.10
2022-10-24T20:21:06.739Z,3.90
2022-10-24T20:23:33.792Z,4.15
2022-10-24T20:26:09.535Z,4.68
2022-10-24T20:28:43.028Z,4.40
2022-10-24T20:31:27.861Z,5.47
2022-10-24T20:33:57.920Z,4.83
2022-10-24T20:36:24.523Z,5.63
2022-10-24T20:38:50.978Z,4.95
2022-10-24T20:41:17.426Z,4.40
2022-10-24T20:43:43.883Z,6.05
2022-10-24T20:46:10.561Z,5.57
2022-10-24T20:48:37.045Z,5.18
2022-10-24T20:51:05.606Z,6.25
2022-10-24T20:53:32.525Z,5.55
2022-10-24T20:56:05.238Z,4.57
2022-10-24T20:58:31.685Z,5.60
2022-10-24T21:00:58.228Z,5.00
2022-10-24T21:03:24.829Z,5.30
2022-10-24T21:05:51.258Z,5.35
2022-10-24T21:08:17.779Z,5.80
2022-10-24T21:10:44.243Z,5.57
2022-10-24T21:13:10.670Z,5.60
2022-10-24T21:15:37.135Z,5.70
2022-10-24T21:18:05.187Z,5.90
2022-10-24T21:20:31.800Z,6.93
2022-10-24T21:22:58.390Z,5.00
2022-10-24T21:25:24.858Z,5.40
2022-10-24T21:27:51.447Z,5.75
2022-10-24T21:30:17.969Z,5.15
2022-10-24T21:32:44.446Z,5.32
2022-10-24T21:35:10.934Z,4.77
2022-10-24T21:37:37.424Z,5.32
2022-10-24T21:40:04.215Z,5.78
2022-10-24T21:42:31.374Z,5.72
2022-10-24T21:44:58.143Z,6.18
2022-10-24T21:47:24.671Z,5.93
2022-10-24T21:49:51.094Z,5.40
2022-10-24T21:52:17.498Z,6.32
2022-10-24T21:54:44.003Z,5.35
2022-10-24T21:57:10.456Z,5.97
2022-10-24T21:59:38.863Z,6.63
2022-10-24T22:02:05.504Z,5.68
2022-10-24T22:04:31.987Z,6.18
2022-10-24T22:06:58.411Z,5.97
2022-10-24T22:09:24.983Z,5.97
2022-10-24T22:11:51.725Z,6.03
2022-10-24T22:14:18.513Z,4.88
2022-10-24T22:16:45.267Z,6.18
2022-10-24T22:19:13.874Z,6.07
2022-10-24T22:21:46.186Z,4.82
2022-10-24T22:24:15.639Z,5.80
2022-10-24T22:26:42.370Z,5.07
2022-10-24T22:29:10.213Z,5.20
2022-10-24T22:31:37.091Z,5.38
2022-10-24T22:34:04.437Z,5.53
2022-10-24T22:36:40.032Z,4.53
2022-10-24T22:39:16.501Z,6.03
2022-10-24T22:41:44.653Z,4.85
2022-10-24T22:44:12.738Z,5.15
2022-10-24T22:47:06.793Z,5.68
2022-10-24T22:50:08.726Z,5.80
2022-10-24T22:52:35.376Z,5.10
2022-10-24T22:55:03.995Z,4.78
2022-10-24T22:57:31.204Z,5.28
2022-10-24T22:59:57.873Z,4.97
2022-10-24T23:02:36.386Z,5.17
2022-10-24T23:05:11.552Z,5.20
2022-10-24T23:07:57.327Z,4.88
2022-10-24T23:10:25.502Z,4.97
2022-10-24T23:12:52.630Z,5.75
2022-10-24T23:15:21.181Z,5.23
2022-10-24T23:17:49.436Z,5.82
2022-10-24T23:20:35.862Z,5.47
2022-10-24T23:23:15.778Z,5.88
2022-10-24T23:25:50.050Z,6.00
2022-10-24T23:28:29.814Z,6.20
2022-10-24T23:30:56.614Z,5.40
2022-10-24T23:33:27.570Z,6.65
2022-10-24T23:35:58.751Z,5.63
2022-10-24T23:38:26.139Z,5.43
2022-10-24T23:40:53.204Z,5.73
2022-10-24T23:43:21.658Z,6.68
2022-10-24T23:46:13.510Z,6.40
2022-10-24T23:48:45.807Z,6.10
2022-10-24T23:51:17.389Z,6.70
2022-10-24T23:53:54.875Z,6.03
2022-10-24T23:56:29.092Z,6.78
2022-10-24T23:58:56.118Z,6.57
